Time;durP1;ratioP1;P1;durP2;ratioP2;P2;SDS_P1;SDS_P2;PMS_P1;PMS_P2;Temp;Humidity;BMP_temperature;BMP_pressure;BME280_temperature;BME280_humidity;BME280_pressure;Samples;Min_cycle;Max_cycle;Signal;HPM_P1;HPM_P2
2024/02/25 00:00:43;;;;;;;59.78;33.03;;;;;;;;;;5078076;28;20033;-78
2024/02/25 00:03:09;;;;;;;56.00;30.60;;;;;;;;;;5077508;28;20087;-79
2024/02/25 00:05:37;;;;;;;55.90;30.60;;;;;;;;;;5010418;28;20030;-78
2024/02/25 00:08:03;;;;;;;61.95;32.80;;;;;;;;;;5077109;28;20049;-79
2024/02/25 00:10:30;;;;;;;58.05;30.02;;;;;;;;;;5077997;28;20026;-78
2024/02/25 00:12:56;;;;;;;54.35;31.63;;;;;;;;;;5074734;28;20097;-78
2024/02/25 00:15:22;;;;;;;52.28;29.05;;;;;;;;;;5070224;28;20033;-80
2024/02/25 00:17:48;;;;;;;53.13;29.90;;;;;;;;;;5076749;28;20011;-78
2024/02/25 00:20:14;;;;;;;49.10;28.30;;;;;;;;;;5077914;28;20109;-78
2024/02/25 00:22:40;;;;;;;54.28;29.85;;;;;;;;;;5077435;28;20026;-79
2024/02/25 00:25:06;;;;;;;49.35;28.52;;;;;;;;;;5077538;28;20134;-79
2024/02/25 00:27:32;;;;;;;54.10;27.88;;;;;;;;;;5007632;28;20104;-78
2024/02/25 00:29:58;;;;;;;45.85;27.27;;;;;;;;;;4999531;28;20026;-79
2024/02/25 00:32:26;;;;;;;45.28;26.20;;;;;;;;;;5075873;28;20094;-78
2024/02/25 00:34:52;;;;;;;50.17;28.52;;;;;;;;;;5009766;28;20026;-78
2024/02/25 00:37:19;;;;;;;48.92;27.13;;;;;;;;;;5077194;28;20029;-79
2024/02/25 00:39:45;;;;;;;44.25;25.30;;;;;;;;;;5008966;28;20061;-79
2024/02/25 00:42:11;;;;;;;50.55;27.55;;;;;;;;;;5076690;28;20022;-80
2024/02/25 00:44:39;;;;;;;48.22;26.77;;;;;;;;;;5077351;28;20078;-79
2024/02/25 00:47:05;;;;;;;45.85;25.67;;;;;;;;;;5009285;28;20395;-79
2024/02/25 00:49:32;;;;;;;47.30;26.05;;;;;;;;;;5010116;28;20106;-79
2024/02/25 00:51:58;;;;;;;44.28;25.45;;;;;;;;;;5077024;28;20400;-79
2024/02/25 00:54:24;;;;;;;40.60;22.88;;;;;;;;;;5076625;28;20581;-79
2024/02/25 00:56:50;;;;;;;41.78;24.00;;;;;;;;;;5075071;28;20026;-80
2024/02/25 00:59:16;;;;;;;43.13;24.10;;;;;;;;;;5003062;28;20112;-78
2024/02/25 01:01:42;;;;;;;43.25;24.20;;;;;;;;;;5076930;28;20425;-79
2024/02/25 01:04:08;;;;;;;42.42;23.40;;;;;;;;;;5030244;28;20377;-79
2024/02/25 01:06:34;;;;;;;41.28;22.73;;;;;;;;;;5009182;28;20476;-78
2024/02/25 01:09:01;;;;;;;41.13;22.83;;;;;;;;;;5076802;28;20079;-79
2024/02/25 01:11:27;;;;;;;39.60;22.38;;;;;;;;;;5009562;28;20023;-80
2024/02/25 01:13:53;;;;;;;39.70;21.52;;;;;;;;;;5076974;28;20158;-79
2024/02/25 01:16:19;;;;;;;36.35;20.52;;;;;;;;;;5076722;28;20040;-79
2024/02/25 01:18:45;;;;;;;36.28;21.48;;;;;;;;;;5009167;28;20440;-79
2024/02/25 01:21:11;;;;;;;34.97;19.83;;;;;;;;;;5077107;28;20144;-79
2024/02/25 01:23:37;;;;;;;33.60;20.48;;;;;;;;;;5006820;28;20403;-78
2024/02/25 01:26:03;;;;;;;38.70;21.25;;;;;;;;;;4997016;28;20018;-78
2024/02/25 01:28:30;;;;;;;37.88;22.00;;;;;;;;;;5009011;28;20060;-79
2024/02/25 01:30:56;;;;;;;40.28;21.15;;;;;;;;;;5077081;28;20072;-79
2024/02/25 01:33:22;;;;;;;32.80;19.98;;;;;;;;;;5076541;28;20468;-77
2024/02/25 01:35:48;;;;;;;39.03;22.80;;;;;;;;;;5076722;28;20482;-77
2024/02/25 01:38:15;;;;;;;38.88;20.55;;;;;;;;;;5005928;28;20061;-79
2024/02/25 01:40:41;;;;;;;38.33;22.60;;;;;;;;;;5079454;28;20051;-78
2024/02/25 01:43:11;;;;;;;38.88;22.30;;;;;;;;;;5090015;28;20036;-78
2024/02/25 01:45:37;;;;;;;37.00;20.88;;;;;;;;;;5082658;28;20141;-79
2024/02/25 01:48:04;;;;;;;36.90;21.60;;;;;;;;;;5094840;28;20473;-77
2024/02/25 01:50:31;;;;;;;41.10;21.35;;;;;;;;;;5094157;28;20027;-77
2024/02/25 01:52:58;;;;;;;40.83;21.90;;;;;;;;;;5093750;28;20048;-79
2024/02/25 01:55:25;;;;;;;38.22;20.80;;;;;;;;;;5094330;28;20027;-80
2024/02/25 01:57:51;;;;;;;32.78;18.85;;;;;;;;;;5093604;28;20116;-80
2024/02/25 02:00:18;;;;;;;32.17;18.02;;;;;;;;;;5086522;28;20040;-77
2024/02/25 02:02:44;;;;;;;35.38;19.67;;;;;;;;;;5082437;28;20036;-79
2024/02/25 02:05:10;;;;;;;33.15;19.25;;;;;;;;;;5095302;28;20066;-79
2024/02/25 02:07:38;;;;;;;32.40;18.95;;;;;;;;;;5094603;28;20031;-79
2024/02/25 02:10:10;;;;;;;33.92;19.08;;;;;;;;;;5091556;28;20024;-78
2024/02/25 02:12:43;;;;;;;31.25;18.40;;;;;;;;;;5090805;28;20048;-78
2024/02/25 02:15:10;;;;;;;32.22;19.00;;;;;;;;;;5095421;28;20032;-78
2024/02/25 02:17:39;;;;;;;27.77;18.00;;;;;;;;;;5093023;28;20066;-78
2024/02/25 02:20:06;;;;;;;30.42;18.85;;;;;;;;;;5084253;28;20107;-79
2024/02/25 02:22:32;;;;;;;35.03;19.35;;;;;;;;;;5092385;28;20070;-78
2024/02/25 02:24:58;;;;;;;33.13;19.38;;;;;;;;;;5094954;28;20050;-80
2024/02/25 02:27:25;;;;;;;33.50;19.42;;;;;;;;;;5092898;28;20028;-80
2024/02/25 02:29:51;;;;;;;36.03;19.33;;;;;;;;;;5092908;28;20040;-79
2024/02/25 02:32:19;;;;;;;34.97;19.25;;;;;;;;;;5092738;28;20056;-80
2024/02/25 02:34:45;;;;;;;31.55;18.80;;;;;;;;;;5093219;28;20063;-78
2024/02/25 02:37:11;;;;;;;33.63;18.52;;;;;;;;;;5094344;28;20351;-78
2024/02/25 02:39:37;;;;;;;34.13;19.35;;;;;;;;;;5082577;28;20102;-79
2024/02/25 02:42:04;;;;;;;33.40;19.65;;;;;;;;;;5090760;28;20031;-79
2024/02/25 02:44:30;;;;;;;33.60;18.75;;;;;;;;;;5093103;28;20032;-79
2024/02/25 02:46:56;;;;;;;34.55;19.45;;;;;;;;;;5091605;28;20112;-79
2024/02/25 02:49:22;;;;;;;34.28;19.73;;;;;;;;;;5084512;28;20024;-79
2024/02/25 02:51:50;;;;;;;33.13;19.23;;;;;;;;;;5092412;28;20111;-79
2024/02/25 02:54:16;;;;;;;34.10;20.15;;;;;;;;;;5094308;28;20521;-79
2024/02/25 02:56:42;;;;;;;32.05;19.35;;;;;;;;;;5092466;28;20099;-80
2024/02/25 02:59:08;;;;;;;36.92;20.13;;;;;;;;;;5092883;28;20020;-79
2024/02/25 03:01:34;;;;;;;36.78;19.67;;;;;;;;;;5092816;28;20538;-79
2024/02/25 03:04:00;;;;;;;31.90;18.98;;;;;;;;;;5092361;28;20120;-78
2024/02/25 03:06:26;;;;;;;30.02;18.83;;;;;;;;;;5094219;28;20439;-79
2024/02/25 03:08:52;;;;;;;33.50;19.38;;;;;;;;;;5093632;28;20051;-78
2024/02/25 03:11:18;;;;;;;34.10;18.73;;;;;;;;;;5092353;28;20465;-78
2024/02/25 03:13:44;;;;;;;31.85;18.00;;;;;;;;;;5092785;28;20509;-78
2024/02/25 03:16:10;;;;;;;28.10;17.58;;;;;;;;;;5092230;28;20020;-78
2024/02/25 03:18:36;;;;;;;35.65;19.38;;;;;;;;;;5092248;28;20497;-78
2024/02/25 03:21:03;;;;;;;38.72;18.77;;;;;;;;;;5088061;28;20031;-78
2024/02/25 03:23:29;;;;;;;32.72;19.10;;;;;;;;;;5092001;28;20432;-78
2024/02/25 03:25:55;;;;;;;33.78;18.38;;;;;;;;;;5093834;28;20020;-79
2024/02/25 03:28:21;;;;;;;32.63;19.58;;;;;;;;;;5092209;28;20021;-79
2024/02/25 03:30:47;;;;;;;41.03;21.42;;;;;;;;;;5093270;28;20046;-79
2024/02/25 03:33:13;;;;;;;31.77;19.27;;;;;;;;;;5092014;28;20024;-79
2024/02/25 03:35:40;;;;;;;31.55;19.30;;;;;;;;;;5089539;28;20094;-79
2024/02/25 03:38:06;;;;;;;37.63;20.27;;;;;;;;;;5089709;28;20477;-79
2024/02/25 03:40:32;;;;;;;37.33;19.65;;;;;;;;;;5033463;28;20137;-80
2024/02/25 03:42:58;;;;;;;37.10;21.33;;;;;;;;;;5077256;28;20026;-79
2024/02/25 03:45:24;;;;;;;37.67;19.77;;;;;;;;;;5077649;28;20036;-77
2024/02/25 03:47:50;;;;;;;40.40;22.20;;;;;;;;;;5077824;28;20022;-78
2024/02/25 03:50:17;;;;;;;39.65;21.67;;;;;;;;;;5077830;28;20037;-78
2024/02/25 03:52:43;;;;;;;38.88;22.83;;;;;;;;;;5009140;28;20049;-78
2024/02/25 03:55:09;;;;;;;43.92;23.95;;;;;;;;;;5078006;28;20103;-78
2024/02/25 03:57:37;;;;;;;41.85;23.92;;;;;;;;;;5004345;28;20022;-79
2024/02/25 04:00:03;;;;;;;41.00;22.30;;;;;;;;;;5072190;28;20040;-79
2024/02/25 04:02:30;;;;;;;44.25;24.10;;;;;;;;;;5077551;28;20034;-79
2024/02/25 04:04:56;;;;;;;40.90;23.13;;;;;;;;;;5078154;28;20074;-78
2024/02/25 04:07:22;;;;;;;42.28;21.88;;;;;;;;;;5077202;28;20018;-78
2024/02/25 04:09:48;;;;;;;42.08;24.15;;;;;;;;;;5009008;28;20070;-79
2024/02/25 04:12:15;;;;;;;45.20;24.00;;;;;;;;;;5077203;28;20022;-78
2024/02/25 04:14:41;;;;;;;42.95;24.52;;;;;;;;;;5077937;28;20014;-78
2024/02/25 04:17:07;;;;;;;46.20;25.67;;;;;;;;;;5009546;28;20037;-78
2024/02/25 04:19:33;;;;;;;47.15;24.80;;;;;;;;;;5005050;28;20475;-79
2024/02/25 04:21:59;;;;;;;51.58;27.77;;;;;;;;;;5003668;28;20034;-79
2024/02/25 04:24:25;;;;;;;46.53;27.13;;;;;;;;;;5077802;28;20018;-79
2024/02/25 04:26:51;;;;;;;50.33;27.15;;;;;;;;;;5077109;28;20033;-78
2024/02/25 04:29:17;;;;;;;50.03;27.95;;;;;;;;;;5007825;28;20101;-79
2024/02/25 04:31:46;;;;;;;48.80;28.17;;;;;;;;;;5009610;28;20055;-79
2024/02/25 04:34:12;;;;;;;47.42;27.05;;;;;;;;;;5068969;28;20029;-79
2024/02/25 04:36:39;;;;;;;47.55;27.65;;;;;;;;;;5077221;28;20308;-77
2024/02/25 04:39:05;;;;;;;45.08;25.75;;;;;;;;;;5009822;28;20502;-78
2024/02/25 04:41:31;;;;;;;51.78;28.80;;;;;;;;;;5009851;28;20014;-79
2024/02/25 04:43:58;;;;;;;46.20;25.83;;;;;;;;;;5076147;28;20571;-79
2024/02/25 04:46:24;;;;;;;45.33;25.92;;;;;;;;;;5071471;28;20121;-79
2024/02/25 04:48:50;;;;;;;45.75;25.67;;;;;;;;;;5076829;28;20015;-78
2024/02/25 04:51:18;;;;;;;51.58;26.45;;;;;;;;;;5075786;28;20022;-78
2024/02/25 04:53:44;;;;;;;48.80;27.17;;;;;;;;;;5077087;28;20108;-80
2024/02/25 04:56:10;;;;;;;46.80;24.58;;;;;;;;;;5009541;28;20018;-79
2024/02/25 04:58:36;;;;;;;46.80;28.27;;;;;;;;;;5004324;28;20041;-78
2024/02/25 05:01:02;;;;;;;49.42;27.20;;;;;;;;;;5050524;28;20039;-79
2024/02/25 05:03:28;;;;;;;48.42;26.95;;;;;;;;;;5054269;28;20038;-78
2024/02/25 05:05:54;;;;;;;47.60;25.75;;;;;;;;;;5009465;28;20022;-79
2024/02/25 05:08:20;;;;;;;47.67;26.67;;;;;;;;;;5003878;28;20033;-78
2024/02/25 05:10:46;;;;;;;49.25;27.92;;;;;;;;;;5008381;28;20066;-78
2024/02/25 05:13:12;;;;;;;50.33;29.02;;;;;;;;;;5076254;28;20026;-77
2024/02/25 05:15:38;;;;;;;50.30;28.98;;;;;;;;;;5077090;28;20030;-78
2024/02/25 05:18:05;;;;;;;55.08;30.30;;;;;;;;;;5076989;28;20033;-78
2024/02/25 05:20:31;;;;;;;47.72;28.30;;;;;;;;;;5011407;28;20022;-78
2024/02/25 05:22:57;;;;;;;47.85;26.38;;;;;;;;;;5080476;28;20166;-78
2024/02/25 05:25:23;;;;;;;43.65;25.30;;;;;;;;;;5080759;28;20034;-78
2024/02/25 05:27:49;;;;;;;45.35;23.77;;;;;;;;;;5080547;28;20034;-79
2024/02/25 05:30:16;;;;;;;47.70;26.40;;;;;;;;;;5012477;28;20091;-79
2024/02/25 05:32:43;;;;;;;44.45;26.48;;;;;;;;;;5012328;28;20055;-78
2024/02/25 05:35:10;;;;;;;49.33;25.90;;;;;;;;;;5011194;28;20532;-78
2024/02/25 05:37:36;;;;;;;45.28;24.23;;;;;;;;;;5026570;28;20483;-78
2024/02/25 05:40:03;;;;;;;43.42;23.45;;;;;;;;;;5012272;28;20042;-78
2024/02/25 05:42:29;;;;;;;42.22;24.42;;;;;;;;;;5080073;28;20038;-78
2024/02/25 05:44:55;;;;;;;50.40;26.20;;;;;;;;;;5074103;28;20462;-79
2024/02/25 05:47:21;;;;;;;51.85;26.65;;;;;;;;;;5077666;28;20029;-78
2024/02/25 05:49:47;;;;;;;52.70;28.23;;;;;;;;;;5075761;28;20388;-78
2024/02/25 05:52:13;;;;;;;64.80;36.85;;;;;;;;;;5012092;28;20033;-79
2024/02/25 05:54:39;;;;;;;64.68;35.80;;;;;;;;;;5080383;28;20079;-78
2024/02/25 05:57:05;;;;;;;60.45;35.17;;;;;;;;;;5079757;28;20071;-78
2024/02/25 05:59:32;;;;;;;61.40;33.55;;;;;;;;;;5012367;28;20026;-78
2024/02/25 06:01:58;;;;;;;50.25;30.15;;;;;;;;;;5012033;28;20028;-78
2024/02/25 06:04:24;;;;;;;49.97;28.17;;;;;;;;;;5012264;28;20018;-78
2024/02/25 06:06:51;;;;;;;45.28;25.05;;;;;;;;;;5079296;28;20079;-78
2024/02/25 06:09:17;;;;;;;43.90;25.77;;;;;;;;;;5080210;28;20498;-78
2024/02/25 06:11:43;;;;;;;46.83;25.42;;;;;;;;;;5079308;28;20528;-77
2024/02/25 06:14:09;;;;;;;49.17;25.65;;;;;;;;;;5080097;28;20102;-78
2024/02/25 06:16:35;;;;;;;45.05;25.08;;;;;;;;;;5079673;28;20026;-79
2024/02/25 06:19:02;;;;;;;45.22;25.90;;;;;;;;;;5011719;28;20022;-78
2024/02/25 06:21:28;;;;;;;52.65;26.83;;;;;;;;;;5077499;28;20029;-79
2024/02/25 06:23:54;;;;;;;45.35;25.48;;;;;;;;;;5077906;28;20042;-78
2024/02/25 06:26:20;;;;;;;44.85;24.63;;;;;;;;;;5078262;28;20028;-79
2024/02/25 06:28:46;;;;;;;49.92;26.40;;;;;;;;;;5009513;28;20090;-78
2024/02/25 06:31:12;;;;;;;46.58;25.63;;;;;;;;;;5078962;28;20041;-78
2024/02/25 06:33:38;;;;;;;43.13;24.60;;;;;;;;;;5001952;28;20045;-77
2024/02/25 06:36:04;;;;;;;37.80;22.38;;;;;;;;;;5079616;28;20030;-78
2024/02/25 06:38:30;;;;;;;37.47;21.00;;;;;;;;;;5008754;28;20034;-78
2024/02/25 06:40:57;;;;;;;39.25;23.15;;;;;;;;;;5079533;28;20061;-78
2024/02/25 06:43:24;;;;;;;36.65;19.38;;;;;;;;;;5077804;28;20125;-78
2024/02/25 06:45:52;;;;;;;37.67;19.20;;;;;;;;;;5079595;28;20030;-78
2024/02/25 06:48:18;;;;;;;30.33;16.77;;;;;;;;;;5011178;28;20098;-78
2024/02/25 06:50:44;;;;;;;33.58;17.02;;;;;;;;;;5076382;28;21322;-77
2024/02/25 06:53:10;;;;;;;31.20;16.52;;;;;;;;;;4998264;28;20457;-78
2024/02/25 06:55:36;;;;;;;28.75;16.90;;;;;;;;;;5002227;28;20353;-78
2024/02/25 06:58:02;;;;;;;32.67;17.63;;;;;;;;;;5001436;28;20067;-78
2024/02/25 07:00:28;;;;;;;28.83;16.23;;;;;;;;;;5076084;28;20139;-78
2024/02/25 07:02:54;;;;;;;27.27;14.05;;;;;;;;;;5077226;28;20044;-78
2024/02/25 07:05:21;;;;;;;27.65;15.70;;;;;;;;;;5066361;28;20053;-78
2024/02/25 07:07:50;;;;;;;27.08;16.55;;;;;;;;;;5074916;28;20622;-78
2024/02/25 07:10:16;;;;;;;26.80;15.95;;;;;;;;;;5008439;28;20018;-79
2024/02/25 07:12:42;;;;;;;30.10;15.98;;;;;;;;;;5004509;28;20025;-78
2024/02/25 07:15:08;;;;;;;31.25;17.42;;;;;;;;;;5007288;28;20030;-78
2024/02/25 07:17:34;;;;;;;26.27;15.32;;;;;;;;;;5071566;28;20014;-78
2024/02/25 07:20:00;;;;;;;24.73;15.38;;;;;;;;;;5006041;28;20044;-78
2024/02/25 07:22:26;;;;;;;23.10;14.27;;;;;;;;;;4996651;28;20057;-78
2024/02/25 07:24:52;;;;;;;20.52;12.75;;;;;;;;;;5074234;28;20407;-78
2024/02/25 07:27:18;;;;;;;20.20;13.02;;;;;;;;;;5004898;28;20255;-77
2024/02/25 07:29:44;;;;;;;15.60;10.90;;;;;;;;;;5077106;28;20035;-77
2024/02/25 07:32:10;;;;;;;15.70;11.07;;;;;;;;;;5067361;28;20030;-77
2024/02/25 07:34:36;;;;;;;15.07;10.00;;;;;;;;;;5075672;28;20057;-79
2024/02/25 07:37:03;;;;;;;13.73;8.38;;;;;;;;;;5077573;28;20014;-77
2024/02/25 07:39:29;;;;;;;15.57;8.98;;;;;;;;;;4999280;28;20545;-77
2024/02/25 07:41:55;;;;;;;14.82;8.02;;;;;;;;;;5007085;28;20142;-78
2024/02/25 07:44:21;;;;;;;11.23;6.47;;;;;;;;;;4995068;28;20032;-77
2024/02/25 07:46:47;;;;;;;10.55;7.35;;;;;;;;;;4994105;28;20030;-77
2024/02/25 07:49:14;;;;;;;9.10;6.43;;;;;;;;;;5075931;28;20037;-78
2024/02/25 07:51:40;;;;;;;9.48;6.38;;;;;;;;;;4996744;28;20022;-78
2024/02/25 07:54:06;;;;;;;12.10;7.18;;;;;;;;;;4998460;28;20040;-79
2024/02/25 07:56:32;;;;;;;11.00;6.80;;;;;;;;;;5076426;28;20026;-78
2024/02/25 07:58:58;;;;;;;11.43;7.28;;;;;;;;;;5077376;28;20548;-78
2024/02/25 08:01:24;;;;;;;11.15;6.30;;;;;;;;;;4993705;28;20101;-77
2024/02/25 08:03:50;;;;;;;9.95;6.13;;;;;;;;;;5074126;28;20398;-78
2024/02/25 08:06:24;;;;;;;12.23;6.40;;;;;;;;;;4996593;28;20022;-77
2024/02/25 08:08:51;;;;;;;11.18;6.05;;;;;;;;;;5000562;28;20018;-78
2024/02/25 08:11:17;;;;;;;10.38;6.63;;;;;;;;;;5062753;28;20079;-80
2024/02/25 08:13:43;;;;;;;11.55;6.65;;;;;;;;;;5086520;28;20038;-77
2024/02/25 08:16:09;;;;;;;9.23;5.72;;;;;;;;;;5070865;28;20038;-76
2024/02/25 08:18:36;;;;;;;10.73;6.75;;;;;;;;;;5005352;28;20041;-77
2024/02/25 08:21:02;;;;;;;12.23;6.70;;;;;;;;;;4999188;28;20100;-79
2024/02/25 08:23:28;;;;;;;12.55;6.82;;;;;;;;;;4996325;28;20046;-78
2024/02/25 08:25:54;;;;;;;7.57;5.30;;;;;;;;;;5000361;28;20022;-78
2024/02/25 08:28:21;;;;;;;7.95;5.13;;;;;;;;;;5005843;28;20030;-78
2024/02/25 08:30:47;;;;;;;7.20;4.72;;;;;;;;;;5077582;28;20471;-78
2024/02/25 08:33:13;;;;;;;9.85;5.40;;;;;;;;;;5005945;28;20482;-78
2024/02/25 08:35:39;;;;;;;4.95;4.07;;;;;;;;;;5073931;28;20053;-77
2024/02/25 08:38:05;;;;;;;7.88;4.18;;;;;;;;;;5075033;28;20112;-78
2024/02/25 08:40:31;;;;;;;5.88;3.97;;;;;;;;;;4999647;28;20058;-78
2024/02/25 08:42:58;;;;;;;6.53;3.30;;;;;;;;;;5002935;28;20038;-78
2024/02/25 08:45:24;;;;;;;7.70;2.92;;;;;;;;;;5064441;28;20396;-78
2024/02/25 08:47:50;;;;;;;4.35;2.40;;;;;;;;;;4995879;28;20022;-77
2024/02/25 08:50:16;;;;;;;5.13;2.28;;;;;;;;;;5000645;28;20026;-77
2024/02/25 08:52:42;;;;;;;4.00;2.97;;;;;;;;;;5000462;28;20031;-77
2024/02/25 08:55:08;;;;;;;2.95;2.45;;;;;;;;;;5007076;28;20033;-77
2024/02/25 08:57:34;;;;;;;4.93;2.28;;;;;;;;;;4994876;28;20042;-77
2024/02/25 09:00:00;;;;;;;3.15;2.08;;;;;;;;;;4997908;28;20022;-77
2024/02/25 09:02:26;;;;;;;3.95;3.10;;;;;;;;;;5078846;28;20030;-76
2024/02/25 09:04:52;;;;;;;4.47;2.90;;;;;;;;;;5010450;28;20022;-76
2024/02/25 09:07:19;;;;;;;3.08;2.33;;;;;;;;;;5010384;28;20114;-76
2024/02/25 09:09:46;;;;;;;4.80;2.00;;;;;;;;;;5075257;28;20030;-78
2024/02/25 09:12:13;;;;;;;3.38;2.70;;;;;;;;;;5077274;28;20210;-76
2024/02/25 09:14:43;;;;;;;4.22;3.35;;;;;;;;;;5002341;28;20114;-77
2024/02/25 09:17:09;;;;;;;5.22;3.75;;;;;;;;;;5008378;28;20029;-77
2024/02/25 09:19:35;;;;;;;2.80;1.88;;;;;;;;;;5079154;28;20084;-77
2024/02/25 09:22:01;;;;;;;3.85;1.38;;;;;;;;;;5010438;28;20079;-77
2024/02/25 09:24:27;;;;;;;2.97;2.28;;;;;;;;;;5078986;28;20029;-77
2024/02/25 09:26:53;;;;;;;4.22;2.70;;;;;;;;;;5010424;28;20044;-77
2024/02/25 09:29:20;;;;;;;4.93;1.85;;;;;;;;;;5078373;28;20022;-77
2024/02/25 09:31:46;;;;;;;2.03;1.63;;;;;;;;;;5070460;28;20030;-77
2024/02/25 09:34:14;;;;;;;3.35;1.83;;;;;;;;;;5070253;28;20022;-78
2024/02/25 09:36:44;;;;;;;2.90;2.03;;;;;;;;;;5078493;28;20056;-77
2024/02/25 09:39:10;;;;;;;2.03;1.73;;;;;;;;;;4995600;28;20046;-77
2024/02/25 09:41:37;;;;;;;2.55;1.80;;;;;;;;;;5074870;28;20123;-78
2024/02/25 09:44:03;;;;;;;3.10;1.90;;;;;;;;;;5010720;28;20026;-76
2024/02/25 09:46:32;;;;;;;3.85;2.13;;;;;;;;;;5069183;28;20480;-77
2024/02/25 09:48:59;;;;;;;3.13;1.52;;;;;;;;;;5070632;28;20026;-77
2024/02/25 09:51:25;;;;;;;3.50;2.10;;;;;;;;;;4996489;28;20069;-77
2024/02/25 09:53:56;;;;;;;4.55;1.67;;;;;;;;;;5085485;28;20022;-77
2024/02/25 09:56:22;;;;;;;3.40;1.83;;;;;;;;;;4999498;28;20482;-76
2024/02/25 09:58:48;;;;;;;1.55;1.45;;;;;;;;;;5012434;28;20491;-77
2024/02/25 10:01:15;;;;;;;5.13;2.50;;;;;;;;;;5079730;28;20484;-77
2024/02/25 10:03:44;;;;;;;4.97;2.08;;;;;;;;;;5004419;28;20034;-78
2024/02/25 10:06:11;;;;;;;4.80;2.60;;;;;;;;;;5004867;28;20030;-76
2024/02/25 10:08:53;;;;;;;3.83;2.53;;;;;;;;;;5078583;28;20041;-77
2024/02/25 10:11:19;;;;;;;5.30;3.42;;;;;;;;;;5010020;28;20044;-77
2024/02/25 10:13:46;;;;;;;6.32;3.10;;;;;;;;;;5013131;28;20034;-77
2024/02/25 10:16:16;;;;;;;4.10;2.38;;;;;;;;;;5059702;28;20030;-77
2024/02/25 10:18:43;;;;;;;5.78;3.20;;;;;;;;;;5066852;28;20034;-77
2024/02/25 10:21:10;;;;;;;7.78;3.10;;;;;;;;;;4996845;28;20066;-79
2024/02/25 10:23:36;;;;;;;5.45;3.63;;;;;;;;;;5071457;28;20049;-78
2024/02/25 10:26:14;;;;;;;5.80;3.38;;;;;;;;;;5064084;28;20028;-77
2024/02/25 10:28:43;;;;;;;6.47;3.80;;;;;;;;;;5007823;28;20399;-78
2024/02/25 10:31:11;;;;;;;7.82;3.47;;;;;;;;;;5078661;28;20083;-77
2024/02/25 10:33:38;;;;;;;5.68;3.22;;;;;;;;;;5084303;28;20109;-79
2024/02/25 10:36:04;;;;;;;4.80;3.20;;;;;;;;;;5008668;28;20112;-78
2024/02/25 10:38:30;;;;;;;3.92;3.10;;;;;;;;;;5005926;28;20030;-78
2024/02/25 10:40:57;;;;;;;3.75;3.38;;;;;;;;;;5008395;28;20064;-78
2024/02/25 10:43:26;;;;;;;5.40;2.85;;;;;;;;;;5077958;28;20038;-79
2024/02/25 10:45:52;;;;;;;5.85;3.58;;;;;;;;;;5011244;28;20018;-79
2024/02/25 10:48:20;;;;;;;4.43;3.45;;;;;;;;;;5011042;28;20095;-79
2024/02/25 10:50:47;;;;;;;5.70;3.88;;;;;;;;;;4998597;28;20026;-79
2024/02/25 10:53:18;;;;;;;5.55;3.92;;;;;;;;;;5011846;28;20545;-79
2024/02/25 10:55:46;;;;;;;4.65;3.50;;;;;;;;;;5069576;28;20454;-78
2024/02/25 10:58:16;;;;;;;3.97;2.60;;;;;;;;;;5078913;28;20100;-78
2024/02/25 11:00:42;;;;;;;3.00;1.70;;;;;;;;;;5011210;28;20018;-78
2024/02/25 11:03:09;;;;;;;3.88;2.72;;;;;;;;;;5079068;28;20073;-77
2024/02/25 11:05:35;;;;;;;2.70;1.90;;;;;;;;;;5078341;28;20026;-77
2024/02/25 11:08:01;;;;;;;6.88;2.83;;;;;;;;;;5077652;28;20074;-76
2024/02/25 11:10:35;;;;;;;5.20;3.05;;;;;;;;;;5078364;28;20387;-77
2024/02/25 11:13:01;;;;;;;3.03;2.58;;;;;;;;;;4998554;28;20471;-74
2024/02/25 11:15:28;;;;;;;3.67;2.50;;;;;;;;;;5000475;28;20844;-75
2024/02/25 11:17:57;;;;;;;5.03;2.40;;;;;;;;;;4997868;28;20018;-76
2024/02/25 11:20:28;;;;;;;4.70;2.15;;;;;;;;;;5072841;28;20087;-76
2024/02/25 11:22:55;;;;;;;5.07;3.10;;;;;;;;;;5056318;28;20042;-77
2024/02/25 11:25:27;;;;;;;3.17;2.10;;;;;;;;;;5075953;28;20373;-78
2024/02/25 11:28:03;;;;;;;5.80;3.47;;;;;;;;;;5076704;28;20022;-77
2024/02/25 11:30:46;;;;;;;5.38;3.92;;;;;;;;;;5075894;28;20407;-76
2024/02/25 11:33:42;;;;;;;7.95;4.57;;;;;;;;;;5010172;28;20034;-79
2024/02/25 11:36:19;;;;;;;8.57;4.30;;;;;;;;;;5000962;28;20034;-80
2024/02/25 11:38:47;;;;;;;5.72;3.33;;;;;;;;;;5010146;28;20464;-79
2024/02/25 11:41:13;;;;;;;5.38;3.42;;;;;;;;;;5091671;28;20036;-78
2024/02/25 11:43:40;;;;;;;6.57;4.43;;;;;;;;;;5091559;28;20405;-76
2024/02/25 11:46:07;;;;;;;5.70;4.00;;;;;;;;;;5092722;28;20494;-80
2024/02/25 11:48:34;;;;;;;5.55;3.05;;;;;;;;;;5090507;28;20027;-81
2024/02/25 11:51:04;;;;;;;12.52;5.93;;;;;;;;;;5091634;28;20389;-79
2024/02/25 11:53:30;;;;;;;7.78;3.90;;;;;;;;;;5092458;28;20110;-78
2024/02/25 11:55:56;;;;;;;7.55;3.70;;;;;;;;;;5092981;28;20384;-81
2024/02/25 11:58:23;;;;;;;6.20;3.47;;;;;;;;;;5092147;28;20024;-78
2024/02/25 12:00:50;;;;;;;5.40;3.53;;;;;;;;;;5091495;28;20127;-79
2024/02/25 12:03:16;;;;;;;6.25;3.65;;;;;;;;;;5086574;28;20024;-78
2024/02/25 12:05:43;;;;;;;10.05;3.78;;;;;;;;;;5092780;28;20027;-78
2024/02/25 12:08:12;;;;;;;4.22;2.92;;;;;;;;;;5091373;28;20035;-78
2024/02/25 12:10:39;;;;;;;6.03;2.78;;;;;;;;;;5082003;28;20028;-78
2024/02/25 12:13:06;;;;;;;7.35;3.78;;;;;;;;;;5089201;28;20073;-79
2024/02/25 12:15:32;;;;;;;7.63;3.97;;;;;;;;;;5080702;28;20021;-79
2024/02/25 12:18:02;;;;;;;8.27;3.00;;;;;;;;;;5083640;28;20047;-80
2024/02/25 12:20:28;;;;;;;6.10;2.92;;;;;;;;;;5087012;28;20397;-80
2024/02/25 12:22:54;;;;;;;8.20;3.40;;;;;;;;;;5091211;28;20036;-79
2024/02/25 12:25:21;;;;;;;4.93;2.83;;;;;;;;;;5092076;28;20020;-79
2024/02/25 12:27:51;;;;;;;12.18;5.88;;;;;;;;;;5091958;28;20028;-79
2024/02/25 12:30:19;;;;;;;11.80;5.90;;;;;;;;;;5090754;28;20033;-79
2024/02/25 12:32:45;;;;;;;7.75;3.47;;;;;;;;;;5092416;28;20024;-79
2024/02/25 12:35:12;;;;;;;6.22;3.17;;;;;;;;;;5091341;28;20177;-80
2024/02/25 12:37:38;;;;;;;6.55;3.10;;;;;;;;;;5091761;28;20031;-82
2024/02/25 12:40:08;;;;;;;6.75;3.17;;;;;;;;;;5086344;28;20151;-81
2024/02/25 12:42:35;;;;;;;8.25;4.82;;;;;;;;;;5080800;28;20032;-81
2024/02/25 12:45:01;;;;;;;5.85;2.78;;;;;;;;;;5090039;28;20753;-80
2024/02/25 12:47:28;;;;;;;4.00;2.95;;;;;;;;;;5088697;28;20028;-81
2024/02/25 12:49:54;;;;;;;7.75;3.45;;;;;;;;;;5100281;28;20645;-81
2024/02/25 12:52:20;;;;;;;4.30;3.17;;;;;;;;;;5080743;28;20027;-80
2024/02/25 12:54:46;;;;;;;7.55;2.90;;;;;;;;;;5094400;28;20028;-80
2024/02/25 12:57:13;;;;;;;7.20;2.88;;;;;;;;;;5089177;28;20032;-80
2024/02/25 12:59:39;;;;;;;6.18;2.83;;;;;;;;;;5082611;28;20028;-79
2024/02/25 13:02:10;;;;;;;4.60;2.67;;;;;;;;;;5078795;28;20604;-79
2024/02/25 13:04:36;;;;;;;5.88;3.40;;;;;;;;;;5089907;28;20172;-79
2024/02/25 13:07:03;;;;;;;6.03;3.17;;;;;;;;;;5089120;28;20101;-79
2024/02/25 13:09:29;;;;;;;5.32;2.60;;;;;;;;;;5089994;28;20025;-79
2024/02/25 13:11:55;;;;;;;6.45;2.60;;;;;;;;;;5089908;28;20478;-79
2024/02/25 13:14:21;;;;;;;4.95;3.25;;;;;;;;;;5077130;28;20055;-79
2024/02/25 13:16:47;;;;;;;4.63;2.67;;;;;;;;;;5090318;28;20035;-79
2024/02/25 13:19:13;;;;;;;5.65;3.33;;;;;;;;;;5086940;28;20089;-79
2024/02/25 13:21:39;;;;;;;3.85;2.35;;;;;;;;;;5085135;28;20032;-75
2024/02/25 13:24:06;;;;;;;7.72;2.95;;;;;;;;;;5079495;28;20371;-76
2024/02/25 13:26:32;;;;;;;6.93;3.92;;;;;;;;;;5087135;28;20024;-76
2024/02/25 13:28:58;;;;;;;3.90;2.70;;;;;;;;;;5082163;28;20448;-79
2024/02/25 13:31:25;;;;;;;8.63;2.92;;;;;;;;;;5091438;28;20077;-76
2024/02/25 13:33:51;;;;;;;5.75;3.97;;;;;;;;;;5091682;28;20107;-75
2024/02/25 13:36:19;;;;;;;4.72;3.17;;;;;;;;;;5089633;28;20024;-75
2024/02/25 13:38:45;;;;;;;4.30;3.20;;;;;;;;;;5089579;28;20016;-76
2024/02/25 13:41:11;;;;;;;7.00;3.20;;;;;;;;;;5089588;28;20127;-76
2024/02/25 13:43:38;;;;;;;4.32;3.35;;;;;;;;;;5090524;28;20032;-76
2024/02/25 13:46:04;;;;;;;5.97;2.75;;;;;;;;;;5083678;28;20024;-80
2024/02/25 13:48:30;;;;;;;3.75;2.60;;;;;;;;;;5081277;28;20027;-76
2024/02/25 13:50:56;;;;;;;3.17;2.33;;;;;;;;;;5093221;28;20028;-79
2024/02/25 13:53:23;;;;;;;4.70;2.28;;;;;;;;;;5083012;28;20562;-75
2024/02/25 13:55:50;;;;;;;6.25;3.42;;;;;;;;;;5092526;28;20035;-75
2024/02/25 13:58:16;;;;;;;10.85;3.60;;;;;;;;;;5093277;28;20024;-78
2024/02/25 14:00:43;;;;;;;3.78;2.50;;;;;;;;;;5094434;28;20102;-79
2024/02/25 14:03:12;;;;;;;4.75;2.55;;;;;;;;;;5093966;28;20051;-78
2024/02/25 14:05:38;;;;;;;3.47;1.75;;;;;;;;;;5094232;28;20020;-79
2024/02/25 14:08:05;;;;;;;2.58;1.70;;;;;;;;;;5093853;28;20078;-75
2024/02/25 14:10:31;;;;;;;2.78;1.42;;;;;;;;;;5092394;28;20032;-79
2024/02/25 14:12:57;;;;;;;3.28;1.23;;;;;;;;;;5094695;28;20027;-79
2024/02/25 14:15:23;;;;;;;2.53;1.33;;;;;;;;;;5092945;28;20020;-79
2024/02/25 14:17:55;;;;;;;3.55;1.40;;;;;;;;;;5093010;28;20085;-78
2024/02/25 14:20:22;;;;;;;3.08;1.30;;;;;;;;;;5091809;28;20028;-78
2024/02/25 14:22:48;;;;;;;2.38;1.23;;;;;;;;;;5091735;28;20040;-78
2024/02/25 14:25:15;;;;;;;2.30;2.10;;;;;;;;;;5087880;28;20386;-78